createdAt,value
2022-12-06T00:01:32.418Z,3.40
2022-12-06T00:03:34.955Z,3.40
2022-12-06T00:05:38.654Z,3.40
2022-12-06T00:07:42.557Z,3.40
2022-12-06T00:09:44.296Z,3.40
2022-12-06T00:11:46.539Z,3.40
2022-12-06T00:13:52.376Z,3.50
2022-12-06T00:15:54.114Z,3.40
2022-12-06T00:17:55.862Z,3.40
2022-12-06T00:19:58.143Z,3.50
2022-12-06T00:22:00.230Z,3.50
2022-12-06T00:24:04.806Z,3.50
2022-12-06T00:26:08.318Z,3.50
2022-12-06T00:28:10.112Z,3.50
2022-12-06T00:30:12.059Z,3.40
2022-12-06T00:32:19.250Z,3.40
2022-12-06T00:34:21.572Z,3.50
2022-12-06T00:36:25.648Z,3.50
2022-12-06T00:38:29.216Z,3.40
2022-12-06T00:40:30.963Z,3.40
2022-12-06T00:42:32.733Z,3.40
2022-12-06T00:44:34.462Z,3.40
2022-12-06T00:46:37.265Z,3.40
2022-12-06T00:48:38.998Z,3.40
2022-12-06T00:50:41.046Z,3.30
2022-12-06T00:52:42.771Z,3.30
2022-12-06T00:54:44.526Z,3.30
2022-12-06T00:56:46.254Z,3.40
2022-12-06T00:58:48.102Z,3.20
2022-12-06T01:00:50.026Z,3.30
2022-12-06T01:02:51.874Z,3.20
2022-12-06T01:04:53.627Z,3.20
2022-12-06T01:06:55.369Z,3.30
2022-12-06T01:08:59.272Z,3.20
2022-12-06T01:11:01.345Z,3.20
2022-12-06T01:13:03.616Z,3.20
2022-12-06T01:15:05.805Z,3.20
2022-12-06T01:17:07.596Z,3.20
2022-12-06T01:19:11.978Z,3.20
2022-12-06T01:21:17.639Z,3.20
2022-12-06T01:23:19.419Z,3.30
2022-12-06T01:25:23.196Z,3.20
2022-12-06T01:27:27.736Z,3.10
2022-12-06T01:29:29.562Z,3.10
2022-12-06T01:31:37.775Z,3.10
2022-12-06T01:33:41.145Z,3.10
2022-12-06T01:35:43.330Z,3.10
2022-12-06T01:37:45.069Z,3.00
2022-12-06T01:39:46.863Z,3.00
2022-12-06T01:41:48.688Z,3.00
2022-12-06T01:43:51.001Z,3.00
2022-12-06T01:45:53.340Z,3.00
2022-12-06T01:47:55.196Z,3.00
2022-12-06T01:50:01.255Z,3.00
2022-12-06T01:52:07.382Z,2.90
2022-12-06T01:54:12.369Z,2.90
2022-12-06T01:56:14.467Z,2.90
2022-12-06T01:58:21.170Z,2.90
2022-12-06T02:00:23.105Z,2.90
2022-12-06T02:02:24.917Z,2.80
2022-12-06T02:04:27.155Z,2.80
2022-12-06T02:06:31.182Z,2.80
2022-12-06T02:08:34.093Z,2.70
2022-12-06T02:10:37.050Z,2.70
2022-12-06T02:12:38.842Z,2.70
2022-12-06T02:14:42.656Z,2.70
2022-12-06T02:17:13.321Z,2.70
2022-12-06T02:19:58.046Z,2.60
2022-12-06T02:22:26.525Z,2.60
2022-12-06T02:24:46.745Z,2.50
2022-12-06T02:27:03.931Z,2.50
2022-12-06T02:29:24.520Z,2.50
2022-12-06T02:31:37.053Z,2.50
2022-12-06T02:34:01.134Z,2.50
2022-12-06T02:36:30.835Z,2.50
2022-12-06T02:38:44.223Z,2.50
2022-12-06T02:40:59.134Z,2.50
2022-12-06T02:43:13.407Z,2.50
2022-12-06T02:45:19.765Z,2.50
2022-12-06T02:47:25.154Z,2.50
2022-12-06T02:49:31.372Z,2.50
2022-12-06T02:51:36.621Z,2.50
2022-12-06T02:53:42.738Z,2.50
2022-12-06T02:55:45.463Z,2.50
2022-12-06T02:57:50.763Z,2.50
2022-12-06T02:59:54.241Z,2.50
2022-12-06T03:01:59.619Z,2.40
2022-12-06T03:04:46.389Z,2.40
2022-12-06T03:06:50.950Z,2.40
2022-12-06T03:08:58.276Z,2.40
2022-12-06T03:11:02.506Z,2.40
2022-12-06T03:13:16.014Z,2.40
2022-12-06T03:15:26.968Z,2.30
2022-12-06T03:17:39.223Z,2.30
2022-12-06T03:19:42.285Z,2.30
2022-12-06T03:21:50.258Z,2.30
2022-12-06T03:23:52.650Z,2.30
2022-12-06T03:25:59.711Z,2.30
2022-12-06T03:28:03.783Z,2.30
2022-12-06T03:30:11.473Z,2.30
2022-12-06T03:32:15.642Z,2.30
2022-12-06T03:34:42.810Z,2.30
2022-12-06T03:36:47.722Z,2.20
2022-12-06T03:39:05.689Z,2.20
2022-12-06T03:41:08.821Z,2.20
2022-12-06T03:43:10.971Z,2.20
2022-12-06T03:45:14.233Z,2.20
2022-12-06T03:47:31.222Z,2.20
2022-12-06T03:49:42.663Z,2.20
2022-12-06T03:51:45.342Z,2.20
2022-12-06T03:53:50.154Z,2.10
2022-12-06T03:55:52.192Z,2.10
2022-12-06T03:57:54.107Z,2.10
2022-12-06T03:59:55.964Z,2.10
2022-12-06T04:01:57.820Z,2.20
2022-12-06T04:04:00.014Z,2.10
2022-12-06T04:06:03.465Z,2.20
2022-12-06T04:08:05.593Z,2.10
2022-12-06T04:10:08.092Z,2.10
2022-12-06T04:12:29.782Z,2.10
2022-12-06T04:14:39.301Z,2.10
2022-12-06T04:16:59.443Z,2.20
2022-12-06T04:19:01.222Z,2.10
2022-12-06T04:21:22.716Z,2.20
2022-12-06T04:23:24.440Z,2.30
2022-12-06T04:25:26.206Z,2.30
2022-12-06T04:27:46.462Z,2.30
2022-12-06T04:30:07.035Z,2.40
2022-12-06T04:32:27.544Z,2.40
2022-12-06T04:34:47.881Z,2.40
2022-12-06T04:37:08.761Z,2.40
2022-12-06T04:39:10.515Z,2.40
2022-12-06T04:41:33.405Z,2.40
2022-12-06T04:43:44.220Z,2.40
2022-12-06T04:45:45.961Z,2.50
2022-12-06T04:47:47.766Z,2.50
2022-12-06T04:49:49.747Z,2.50
2022-12-06T04:51:52.181Z,2.40
2022-12-06T04:53:53.929Z,2.40
2022-12-06T04:55:55.703Z,2.40
2022-12-06T04:57:57.402Z,2.40
2022-12-06T04:59:59.439Z,2.40
2022-12-06T05:02:01.364Z,2.40
2022-12-06T05:04:03.250Z,2.30
2022-12-06T05:06:05.592Z,2.40
2022-12-06T05:08:07.679Z,2.30
2022-12-06T05:10:09.684Z,2.30
2022-12-06T05:12:11.425Z,2.30
2022-12-06T05:14:13.204Z,2.30
2022-12-06T05:16:15.122Z,2.30
2022-12-06T05:18:16.916Z,2.30
2022-12-06T05:20:18.662Z,2.30
2022-12-06T05:22:20.388Z,2.30
2022-12-06T05:24:22.248Z,2.20
2022-12-06T05:26:26.800Z,2.20
2022-12-06T05:28:29.613Z,2.20
2022-12-06T05:30:31.446Z,2.20
2022-12-06T05:32:33.180Z,2.10
2022-12-06T05:34:34.920Z,2.10
2022-12-06T05:36:36.723Z,2.10
2022-12-06T05:38:38.520Z,2.10
2022-12-06T05:40:41.443Z,2.00
2022-12-06T05:42:43.229Z,2.00
2022-12-06T05:44:44.958Z,2.00
2022-12-06T05:46:46.648Z,1.90
2022-12-06T05:48:48.398Z,1.90
2022-12-06T05:50:51.010Z,1.90
2022-12-06T05:52:57.234Z,1.90
2022-12-06T05:55:00.099Z,1.90
2022-12-06T05:57:01.826Z,1.90
2022-12-06T05:59:03.691Z,1.90
2022-12-06T06:01:07.206Z,1.80
2022-12-06T06:03:09.051Z,1.80
2022-12-06T06:05:11.025Z,1.80
2022-12-06T06:07:12.729Z,1.80
2022-12-06T06:09:14.536Z,1.80
2022-12-06T06:11:16.466Z,1.80
2022-12-06T06:13:18.267Z,1.80
2022-12-06T06:15:20.009Z,1.80
2022-12-06T06:17:21.810Z,1.80
2022-12-06T06:19:24.422Z,1.80
2022-12-06T06:21:26.093Z,1.80
2022-12-06T06:23:28.880Z,1.80
2022-12-06T06:25:30.676Z,1.80
2022-12-06T06:27:39.923Z,1.90
2022-12-06T06:29:45.330Z,1.80
2022-12-06T06:31:47.566Z,1.80
2022-12-06T06:33:49.475Z,1.80
2022-12-06T06:35:51.214Z,1.90
2022-12-06T06:37:52.967Z,1.80
2022-12-06T06:39:54.752Z,1.80
2022-12-06T06:41:56.534Z,1.80
2022-12-06T06:43:58.291Z,1.80
2022-12-06T06:46:01.967Z,1.80
2022-12-06T06:48:04.049Z,1.80
2022-12-06T06:50:07.361Z,1.80
2022-12-06T06:52:09.195Z,1.80
2022-12-06T06:54:11.237Z,1.80
2022-12-06T06:56:13.176Z,1.80
2022-12-06T06:58:15.174Z,1.90
2022-12-06T07:00:17.686Z,1.90
2022-12-06T07:02:19.481Z,1.90
2022-12-06T07:04:21.225Z,1.90
2022-12-06T07:06:23.005Z,1.90
2022-12-06T07:08:25.945Z,1.90
2022-12-06T07:10:27.728Z,2.00
2022-12-06T07:12:29.475Z,2.00
2022-12-06T07:14:31.403Z,2.10
2022-12-06T07:16:33.755Z,2.10
2022-12-06T07:18:35.671Z,2.30
2022-12-06T07:20:37.474Z,2.20
2022-12-06T07:22:39.623Z,2.20
2022-12-06T07:24:43.600Z,2.30
2022-12-06T07:26:47.268Z,2.30
2022-12-06T07:28:51.127Z,2.30
2022-12-06T07:30:52.893Z,2.30
2022-12-06T07:32:54.999Z,2.40
2022-12-06T07:34:56.786Z,2.40
2022-12-06T07:36:58.573Z,2.40
2022-12-06T07:39:00.775Z,2.40
2022-12-06T07:41:27.048Z,2.50
2022-12-06T07:43:47.367Z,2.50
2022-12-06T07:45:49.225Z,2.50
2022-12-06T07:47:51.020Z,2.50
2022-12-06T07:49:55.778Z,2.50
2022-12-06T07:51:57.884Z,2.50
2022-12-06T07:53:59.735Z,2.50
2022-12-06T07:56:08.491Z,2.50
2022-12-06T07:58:10.619Z,2.50
2022-12-06T08:00:15.425Z,2.40
2022-12-06T08:02:19.707Z,2.40
2022-12-06T08:04:21.571Z,2.50
2022-12-06T08:06:23.645Z,2.50
2022-12-06T08:08:28.874Z,2.50
2022-12-06T08:10:31.007Z,2.50
2022-12-06T08:12:33.138Z,2.50
2022-12-06T08:14:35.587Z,2.50
2022-12-06T08:16:37.342Z,2.50
2022-12-06T08:18:40.389Z,2.60
2022-12-06T08:20:42.107Z,2.60
2022-12-06T08:22:43.923Z,2.60
2022-12-06T08:24:45.786Z,2.60
2022-12-06T08:26:47.878Z,2.60
2022-12-06T08:28:50.322Z,2.60
2022-12-06T08:30:52.404Z,2.70
2022-12-06T08:32:54.177Z,2.80
2022-12-06T08:34:55.911Z,2.80
2022-12-06T08:37:03.011Z,2.80
2022-12-06T08:39:06.477Z,2.90
2022-12-06T08:41:29.270Z,2.90
2022-12-06T08:43:32.225Z,2.90
2022-12-06T08:45:34.635Z,2.90
2022-12-06T08:47:36.401Z,3.00
2022-12-06T08:49:38.179Z,3.10
2022-12-06T08:51:40.832Z,3.10
2022-12-06T08:53:42.604Z,3.20
2022-12-06T08:56:00.448Z,3.30
2022-12-06T08:58:03.990Z,3.30
2022-12-06T09:00:06.943Z,3.40
2022-12-06T09:02:11.792Z,3.40
2022-12-06T09:04:14.177Z,3.50
2022-12-06T09:06:16.377Z,3.50
2022-12-06T09:08:18.183Z,3.60
2022-12-06T09:10:20.070Z,3.60
2022-12-06T09:12:21.808Z,3.70
2022-12-06T09:14:23.598Z,3.70
2022-12-06T09:16:25.497Z,3.70
2022-12-06T09:18:29.003Z,3.80
2022-12-06T09:20:30.759Z,3.80
2022-12-06T09:22:32.468Z,3.90
2022-12-06T09:24:34.322Z,3.90
2022-12-06T09:26:37.020Z,4.00
2022-12-06T09:28:41.563Z,4.00
2022-12-06T09:30:43.310Z,4.00
2022-12-06T09:32:45.545Z,4.10
2022-12-06T09:34:47.323Z,4.10
2022-12-06T09:36:51.206Z,4.20
2022-12-06T09:39:01.365Z,4.20
2022-12-06T09:41:08.666Z,4.20
2022-12-06T09:43:43.753Z,4.20
2022-12-06T09:46:27.117Z,4.30
2022-12-06T09:48:37.961Z,4.30
2022-12-06T09:50:48.849Z,4.30
2022-12-06T09:53:09.350Z,4.30
2022-12-06T09:55:46.096Z,4.40
2022-12-06T09:57:47.880Z,4.40
2022-12-06T09:59:52.388Z,4.40
2022-12-06T10:02:21.537Z,4.50
2022-12-06T10:04:58.837Z,4.50
2022-12-06T10:07:03.620Z,4.70
2022-12-06T10:09:32.308Z,4.60
2022-12-06T10:12:01.269Z,4.50
2022-12-06T10:14:41.156Z,4.60
2022-12-06T10:17:09.410Z,4.60
2022-12-06T10:19:26.799Z,4.60
2022-12-06T10:22:02.518Z,4.60
2022-12-06T10:24:22.882Z,4.70
2022-12-06T10:26:52.116Z,4.70
2022-12-06T10:29:12.484Z,4.70
2022-12-06T10:31:24.809Z,4.70
2022-12-06T10:33:38.546Z,4.80
2022-12-06T10:35:47.056Z,4.80
2022-12-06T10:38:13.276Z,4.80
2022-12-06T10:40:24.155Z,4.90
2022-12-06T10:42:43.017Z,4.90
2022-12-06T10:44:53.740Z,4.90
2022-12-06T10:47:23.840Z,4.90
2022-12-06T10:49:43.211Z,5.00
2022-12-06T10:52:14.398Z,5.00
2022-12-06T10:54:25.614Z,5.00
2022-12-06T10:56:32.663Z,5.00
2022-12-06T10:58:42.103Z,5.00
2022-12-06T11:00:55.469Z,5.00
2022-12-06T11:03:20.074Z,5.00
2022-12-06T11:05:54.447Z,5.10
2022-12-06T11:08:16.647Z,5.10
2022-12-06T11:10:26.306Z,5.00
2022-12-06T11:12:36.423Z,5.10
2022-12-06T11:14:43.517Z,5.10
2022-12-06T11:16:58.497Z,5.10
2022-12-06T11:19:14.929Z,5.10
2022-12-06T11:21:35.412Z,5.00
2022-12-06T11:23:48.376Z,5.10
2022-12-06T11:26:08.832Z,5.10
2022-12-06T11:28:35.768Z,5.00
2022-12-06T11:30:37.992Z,5.10
2022-12-06T11:32:41.816Z,5.00
2022-12-06T11:34:50.082Z,5.20
2022-12-06T11:36:59.915Z,5.00
2022-12-06T11:39:03.635Z,5.10
2022-12-06T11:41:08.682Z,5.10
2022-12-06T11:43:16.941Z,5.10
2022-12-06T11:45:34.025Z,5.10
2022-12-06T11:47:35.816Z,5.20
2022-12-06T11:49:41.072Z,5.10
2022-12-06T11:51:42.838Z,5.20
2022-12-06T11:53:54.946Z,5.20
2022-12-06T11:56:01.071Z,5.20
2022-12-06T11:58:08.899Z,5.30
2022-12-06T12:00:18.709Z,5.20
2022-12-06T12:02:32.946Z,5.20
2022-12-06T12:04:38.076Z,5.20
2022-12-06T12:06:39.933Z,5.30
2022-12-06T12:09:06.031Z,5.30
2022-12-06T12:11:18.640Z,5.30
2022-12-06T12:13:40.628Z,5.30
2022-12-06T12:15:52.600Z,5.30
2022-12-06T12:17:57.530Z,5.30
2022-12-06T12:20:07.111Z,5.30
2022-12-06T12:22:38.386Z,5.40
2022-12-06T12:27:30.141Z,5.40
2022-12-06T12:29:31.952Z,5.30
2022-12-06T12:31:56.161Z,5.30
2022-12-06T12:34:30.455Z,5.30
2022-12-06T12:36:32.501Z,5.30
2022-12-06T12:38:51.623Z,5.30
2022-12-06T12:40:58.395Z,5.20
2022-12-06T12:43:04.766Z,5.20
2022-12-06T12:45:17.360Z,5.20
2022-12-06T12:47:20.473Z,5.20
2022-12-06T12:49:29.576Z,5.20
2022-12-06T12:51:35.409Z,5.20
2022-12-06T12:53:40.452Z,5.10
2022-12-06T12:56:25.776Z,5.10
2022-12-06T12:58:31.624Z,5.10
2022-12-06T13:00:41.771Z,5.10
2022-12-06T13:02:46.158Z,5.10
2022-12-06T13:07:45.178Z,5.10
2022-12-06T13:10:02.417Z,5.10
2022-12-06T13:12:26.422Z,5.10
2022-12-06T13:14:29.555Z,5.10
2022-12-06T13:16:35.377Z,5.10
2022-12-06T13:18:52.704Z,5.10
2022-12-06T13:20:57.747Z,5.00
2022-12-06T13:23:04.885Z,5.00
2022-12-06T13:25:08.186Z,5.10
2022-12-06T13:27:17.796Z,5.00
2022-12-06T13:29:33.648Z,5.00
2022-12-06T13:31:39.819Z,4.90
2022-12-06T13:33:51.013Z,5.00
2022-12-06T13:36:06.088Z,5.00
2022-12-06T13:38:24.480Z,5.00
2022-12-06T13:40:37.073Z,5.00
2022-12-06T13:42:38.806Z,4.90
2022-12-06T13:45:00.172Z,4.90
2022-12-06T13:47:29.416Z,4.90
2022-12-06T13:49:48.634Z,4.90
2022-12-06T13:51:51.179Z,4.90
2022-12-06T13:54:05.247Z,4.80
2022-12-06T13:56:27.868Z,4.90
2022-12-06T13:58:29.545Z,4.90
2022-12-06T14:00:31.286Z,4.90
2022-12-06T14:02:45.335Z,4.90
2022-12-06T14:04:47.212Z,4.90
2022-12-06T14:06:49.062Z,4.90
2022-12-06T14:08:57.133Z,4.90
2022-12-06T14:11:06.492Z,4.90
2022-12-06T14:13:17.197Z,4.90
2022-12-06T14:15:19.880Z,4.90
2022-12-06T14:17:52.684Z,5.00
2022-12-06T14:19:49.601Z,5.00
2022-12-06T14:22:00.210Z,4.90
2022-12-06T14:24:03.676Z,5.00
2022-12-06T14:26:29.279Z,4.90
2022-12-06T14:28:35.382Z,5.00
2022-12-06T14:30:37.313Z,5.00
2022-12-06T14:32:47.832Z,5.00
2022-12-06T14:34:49.763Z,5.00
2022-12-06T14:36:51.749Z,5.00
2022-12-06T14:38:59.005Z,5.00
2022-12-06T14:41:19.484Z,5.00
2022-12-06T14:43:24.977Z,5.00
2022-12-06T14:45:28.244Z,5.00
2022-12-06T14:47:31.396Z,5.00
2022-12-06T14:49:54.273Z,5.00
2022-12-06T14:51:56.101Z,5.00
2022-12-06T14:54:15.770Z,5.00
2022-12-06T14:56:34.159Z,5.00
2022-12-06T14:58:42.919Z,4.90
2022-12-06T15:00:54.228Z,4.90
2022-12-06T15:03:22.565Z,4.90
2022-12-06T15:05:35.066Z,4.90
2022-12-06T15:07:42.357Z,4.90
2022-12-06T15:09:46.085Z,4.90
2022-12-06T15:12:07.823Z,4.90
2022-12-06T15:14:24.813Z,4.90
2022-12-06T15:16:26.836Z,4.90
2022-12-06T15:18:33.132Z,4.90
2022-12-06T15:20:34.953Z,4.80
2022-12-06T15:22:38.164Z,4.80
2022-12-06T15:24:40.049Z,4.90
2022-12-06T15:26:41.854Z,4.80
2022-12-06T15:28:44.022Z,4.80
2022-12-06T15:30:45.923Z,4.80
2022-12-06T15:32:47.721Z,4.80
2022-12-06T15:34:49.557Z,4.80
2022-12-06T15:37:09.057Z,4.80
2022-12-06T15:39:13.561Z,4.80
2022-12-06T15:41:27.390Z,4.80
2022-12-06T15:43:32.149Z,4.80
2022-12-06T15:45:33.918Z,4.80
2022-12-06T15:47:35.697Z,4.80
2022-12-06T15:49:37.929Z,4.80
2022-12-06T15:51:39.704Z,4.80
2022-12-06T15:53:41.650Z,4.80
2022-12-06T15:55:43.423Z,4.70
2022-12-06T15:57:45.159Z,4.70
2022-12-06T15:59:46.899Z,4.70
2022-12-06T16:01:51.163Z,4.70
2022-12-06T16:03:55.784Z,4.70
2022-12-06T16:05:58.210Z,4.70
2022-12-06T16:08:00.191Z,4.60
2022-12-06T16:10:01.981Z,4.70
2022-12-06T16:12:04.132Z,4.70
2022-12-06T16:14:06.209Z,4.70
2022-12-06T16:16:08.764Z,4.70
2022-12-06T16:18:10.592Z,4.70
2022-12-06T16:20:30.701Z,4.80
2022-12-06T16:22:50.780Z,4.80
2022-12-06T16:24:54.040Z,4.80
2022-12-06T16:26:55.940Z,4.80
2022-12-06T16:28:58.242Z,4.90
2022-12-06T16:31:00.036Z,4.90
2022-12-06T16:33:07.332Z,5.00
2022-12-06T16:35:09.485Z,4.90
2022-12-06T16:37:12.233Z,5.00
2022-12-06T16:39:14.022Z,5.00
2022-12-06T16:41:27.186Z,5.00
2022-12-06T16:43:28.937Z,5.00
2022-12-06T16:45:34.020Z,5.00
2022-12-06T16:47:35.792Z,4.90
2022-12-06T16:49:48.848Z,4.90
2022-12-06T16:51:51.360Z,5.00
2022-12-06T16:53:54.041Z,4.90
2022-12-06T16:55:55.718Z,4.90
2022-12-06T16:57:58.326Z,4.90
2022-12-06T16:59:59.986Z,4.90
2022-12-06T17:02:01.796Z,4.80
2022-12-06T17:04:06.329Z,4.80
2022-12-06T17:06:08.410Z,4.90
2022-12-06T17:08:10.328Z,4.90
2022-12-06T17:10:13.001Z,4.90
2022-12-06T17:12:15.285Z,5.00
2022-12-06T17:14:18.786Z,5.10
2022-12-06T17:16:20.580Z,5.00
2022-12-06T17:18:22.349Z,5.00
2022-12-06T17:20:24.089Z,5.00
2022-12-06T17:22:25.894Z,5.10
2022-12-06T17:24:28.387Z,5.00
2022-12-06T17:26:32.910Z,5.00
2022-12-06T17:28:34.657Z,5.00
2022-12-06T17:30:36.475Z,4.90
2022-12-06T17:32:38.237Z,4.90
2022-12-06T17:34:40.058Z,4.90
2022-12-06T17:36:42.800Z,4.80
2022-12-06T17:38:44.707Z,4.80
2022-12-06T17:40:46.472Z,4.80
2022-12-06T17:43:00.216Z,4.80
2022-12-06T17:45:02.841Z,4.80
2022-12-06T17:47:05.352Z,4.80
2022-12-06T17:49:10.092Z,4.80
2022-12-06T17:51:11.901Z,4.80
2022-12-06T17:53:13.642Z,4.80
2022-12-06T17:55:15.516Z,4.80
2022-12-06T17:57:18.477Z,4.70
2022-12-06T17:59:30.203Z,4.70
2022-12-06T18:01:58.160Z,4.70
2022-12-06T18:03:56.278Z,4.60
2022-12-06T18:05:58.685Z,4.60
2022-12-06T18:08:00.435Z,4.50
2022-12-06T18:10:02.202Z,4.50
2022-12-06T18:12:04.234Z,4.50
2022-12-06T18:14:06.765Z,4.50
2022-12-06T18:16:22.377Z,4.50
2022-12-06T18:18:24.219Z,4.40
2022-12-06T18:20:26.055Z,4.40
2022-12-06T18:22:27.747Z,4.40
2022-12-06T18:24:35.422Z,4.40
2022-12-06T18:26:37.929Z,4.40
2022-12-06T18:28:44.172Z,4.40
2022-12-06T18:30:45.899Z,4.30
2022-12-06T18:32:47.663Z,4.60
2022-12-06T18:34:49.427Z,4.40
2022-12-06T18:36:51.376Z,4.30
2022-12-06T18:39:02.123Z,4.30
2022-12-06T18:41:12.562Z,4.30
2022-12-06T18:43:14.318Z,4.50
2022-12-06T18:45:16.170Z,4.30
2022-12-06T18:47:17.914Z,4.30
2022-12-06T18:49:19.737Z,4.30
2022-12-06T18:51:23.891Z,4.30
2022-12-06T18:53:25.709Z,4.30
2022-12-06T18:55:27.743Z,4.40
2022-12-06T18:57:32.147Z,4.40
2022-12-06T18:59:37.547Z,4.30
2022-12-06T19:01:41.121Z,4.30
2022-12-06T19:03:43.701Z,4.30
2022-12-06T19:06:03.648Z,4.40
2022-12-06T19:08:05.672Z,4.40
2022-12-06T19:10:08.075Z,4.30
2022-12-06T19:12:10.502Z,4.30
2022-12-06T19:14:12.918Z,4.30
2022-12-06T19:16:14.922Z,4.30
2022-12-06T19:18:16.733Z,4.30
2022-12-06T19:20:19.030Z,4.30
2022-12-06T19:22:20.817Z,4.30
2022-12-06T19:24:24.989Z,4.30
2022-12-06T19:26:28.028Z,4.30
2022-12-06T19:28:31.013Z,4.30
2022-12-06T19:30:32.816Z,4.30
2022-12-06T19:32:35.631Z,4.30
2022-12-06T19:34:37.449Z,4.30
2022-12-06T19:36:39.177Z,4.20
2022-12-06T19:38:41.191Z,4.20
2022-12-06T19:40:42.965Z,4.20
2022-12-06T19:43:03.280Z,4.20
2022-12-06T19:45:05.636Z,4.20
2022-12-06T19:47:07.551Z,4.20
2022-12-06T19:49:10.262Z,4.20
2022-12-06T19:51:11.975Z,4.10
2022-12-06T19:53:13.711Z,4.10
2022-12-06T19:55:15.567Z,4.20
2022-12-06T19:57:17.353Z,4.20
2022-12-06T19:59:20.229Z,4.20
2022-12-06T20:01:24.992Z,4.20
2022-12-06T20:03:26.845Z,4.20
2022-12-06T20:05:28.580Z,4.30
2022-12-06T20:07:30.305Z,4.20
2022-12-06T20:09:33.246Z,4.20
2022-12-06T20:11:58.734Z,4.00
2022-12-06T20:14:02.156Z,4.20
2022-12-06T20:16:04.713Z,4.20
2022-12-06T20:18:06.372Z,4.20
2022-12-06T20:20:08.587Z,4.20
2022-12-06T20:22:11.050Z,4.10
2022-12-06T20:24:19.006Z,4.10
2022-12-06T20:26:20.850Z,4.20
2022-12-06T20:28:22.599Z,4.20
2022-12-06T20:30:24.399Z,4.20
2022-12-06T20:32:26.115Z,4.20
2022-12-06T20:34:32.865Z,4.10
2022-12-06T20:36:35.254Z,4.10
2022-12-06T20:38:37.235Z,4.20
2022-12-06T20:40:39.317Z,4.20
2022-12-06T20:42:41.086Z,4.20
2022-12-06T20:44:43.685Z,4.10
2022-12-06T20:46:45.673Z,4.10
2022-12-06T20:48:47.499Z,4.10
2022-12-06T20:50:49.271Z,4.00
2022-12-06T20:52:51.083Z,4.10
2022-12-06T20:54:52.885Z,4.00
2022-12-06T20:56:54.699Z,4.10
2022-12-06T20:58:58.832Z,4.00
2022-12-06T21:01:01.118Z,4.00
2022-12-06T21:03:02.961Z,4.00
2022-12-06T21:05:05.355Z,4.00
2022-12-06T21:07:07.172Z,4.00
2022-12-06T21:09:09.385Z,4.00
2022-12-06T21:11:22.723Z,4.00
2022-12-06T21:13:25.618Z,4.00
2022-12-06T21:15:27.432Z,4.00
2022-12-06T21:17:32.692Z,4.10
2022-12-06T21:19:34.770Z,4.10
2022-12-06T21:21:39.661Z,4.00
2022-12-06T21:23:41.421Z,3.90
2022-12-06T21:25:44.322Z,4.00
2022-12-06T21:27:46.050Z,4.00
2022-12-06T21:29:48.352Z,4.00
2022-12-06T21:31:50.219Z,4.00
2022-12-06T21:33:51.975Z,4.10
2022-12-06T21:35:54.120Z,4.10
2022-12-06T21:37:55.852Z,4.00
2022-12-06T21:39:57.550Z,4.00
2022-12-06T21:41:59.340Z,4.10
2022-12-06T21:44:01.121Z,4.00
2022-12-06T21:46:08.163Z,4.00
2022-12-06T21:48:10.060Z,3.90
2022-12-06T21:50:11.846Z,4.00
2022-12-06T21:52:14.284Z,4.00
2022-12-06T21:54:16.029Z,4.00
2022-12-06T21:56:24.121Z,4.00
2022-12-06T21:58:26.217Z,4.00
2022-12-06T22:00:27.973Z,4.00
2022-12-06T22:02:29.753Z,4.00
2022-12-06T22:04:31.611Z,4.00
2022-12-06T22:06:36.092Z,4.00
2022-12-06T22:08:42.251Z,4.00
2022-12-06T22:10:43.968Z,4.00
2022-12-06T22:12:47.704Z,4.10
2022-12-06T22:14:49.458Z,4.00
2022-12-06T22:16:51.255Z,4.00
2022-12-06T22:18:55.125Z,4.00
2022-12-06T22:21:05.006Z,4.10
2022-12-06T22:23:06.769Z,4.00
2022-12-06T22:25:09.226Z,4.00
2022-12-06T22:27:11.015Z,4.00
2022-12-06T22:29:12.785Z,4.10
2022-12-06T22:31:30.296Z,3.90
2022-12-06T22:33:32.543Z,4.00
2022-12-06T22:35:34.299Z,3.90
2022-12-06T22:37:36.126Z,4.00
2022-12-06T22:39:37.852Z,4.00
2022-12-06T22:41:39.636Z,3.90
2022-12-06T22:43:41.401Z,3.90
2022-12-06T22:45:43.134Z,4.00
2022-12-06T22:47:46.402Z,3.90
2022-12-06T22:49:48.223Z,3.90
2022-12-06T22:51:50.021Z,3.90
2022-12-06T22:54:00.158Z,3.90
2022-12-06T22:56:02.131Z,3.90
2022-12-06T22:58:04.117Z,3.90
2022-12-06T23:00:06.766Z,3.90
2022-12-06T23:02:08.442Z,3.90
2022-12-06T23:04:11.410Z,3.90
2022-12-06T23:06:14.257Z,3.90
2022-12-06T23:08:16.085Z,3.90
2022-12-06T23:10:18.049Z,4.00
2022-12-06T23:12:19.753Z,3.90
2022-12-06T23:14:21.495Z,4.00
2022-12-06T23:16:25.979Z,3.90
2022-12-06T23:18:29.231Z,3.90
2022-12-06T23:20:30.978Z,4.00
2022-12-06T23:22:32.762Z,4.00
2022-12-06T23:24:34.477Z,3.90
2022-12-06T23:26:39.022Z,3.90
2022-12-06T23:28:40.862Z,4.00
2022-12-06T23:30:42.628Z,4.00
2022-12-06T23:32:44.328Z,4.00
2022-12-06T23:34:46.039Z,4.00
2022-12-06T23:36:48.277Z,4.00
2022-12-06T23:38:50.589Z,4.00
2022-12-06T23:40:52.326Z,4.00
2022-12-06T23:42:54.090Z,3.90
2022-12-06T23:44:55.820Z,4.00
2022-12-06T23:46:57.772Z,4.00
2022-12-06T23:49:00.224Z,4.00
2022-12-06T23:51:04.843Z,4.00
2022-12-06T23:53:06.584Z,4.00
2022-12-06T23:55:08.704Z,4.00
2022-12-06T23:57:11.534Z,4.10
2022-12-06T23:59:15.063Z,4.00
